Time;durP1;ratioP1;P1;durP2;ratioP2;P2;SDS_P1;SDS_P2;PMS_P1;PMS_P2;Temp;Humidity;BMP_temperature;BMP_pressure;BME280_temperature;BME280_humidity;BME280_pressure;Samples;Min_cycle;Max_cycle;Signal;HPM_P1;HPM_P2
2024/03/04 00:00:42;;;;;;;29.30;16.50;;;;;;;15.56;66.90;100249.38;5019135;27;96961;-67
2024/03/04 00:03:10;;;;;;;32.03;17.63;;;;;;;15.49;67.20;100252.34;5019245;27;98882;-66
2024/03/04 00:05:36;;;;;;;30.67;16.25;;;;;;;15.36;67.45;100246.09;5025587;27;100138;-67
2024/03/04 00:08:03;;;;;;;31.63;17.52;;;;;;;15.46;67.37;100252.56;5020806;27;97105;-67
2024/03/04 00:10:29;;;;;;;28.83;17.13;;;;;;;15.41;67.67;100253.81;5024718;27;97862;-67
2024/03/04 00:12:56;;;;;;;29.55;16.63;;;;;;;15.29;68.06;100255.44;5017755;27;99522;-68
2024/03/04 00:15:24;;;;;;;30.23;16.90;;;;;;;15.61;66.93;100255.25;5027157;27;99119;-67
2024/03/04 00:17:51;;;;;;;32.90;17.58;;;;;;;15.37;67.48;100255.78;5024352;27;97655;-67
2024/03/04 00:20:18;;;;;;;29.63;18.30;;;;;;;15.38;67.48;100246.88;5025762;27;97404;-67
2024/03/04 00:22:45;;;;;;;31.30;18.50;;;;;;;15.27;67.85;100249.34;5026852;27;99250;-68
2024/03/04 00:25:15;;;;;;;33.67;16.88;;;;;;;15.45;67.33;100250.00;5029287;27;101455;-67
2024/03/04 00:27:42;;;;;;;29.60;17.83;;;;;;;15.05;68.59;100249.81;5025260;27;97216;-68
2024/03/04 00:30:09;;;;;;;30.70;18.95;;;;;;;15.15;68.55;100261.63;5029262;27;96785;-68
2024/03/04 00:32:37;;;;;;;31.58;18.10;;;;;;;15.20;68.23;100256.00;5022003;27;99097;-68
2024/03/04 00:35:05;;;;;;;33.80;18.58;;;;;;;14.83;69.54;100265.41;5021988;27;99609;-68
2024/03/04 00:37:32;;;;;;;32.03;18.02;;;;;;;14.92;69.42;100259.50;5021898;27;97233;-68
2024/03/04 00:39:58;;;;;;;34.88;18.65;;;;;;;14.70;69.87;100259.09;5025562;27;98691;-67
2024/03/04 00:42:25;;;;;;;32.53;18.60;;;;;;;14.97;69.54;100259.22;5020245;27;98776;-67
2024/03/04 00:44:53;;;;;;;39.50;18.90;;;;;;;15.06;69.17;100256.00;5018644;27;101787;-67
2024/03/04 00:47:19;;;;;;;32.08;19.27;;;;;;;15.26;68.46;100260.09;5016680;27;98594;-67
2024/03/04 00:49:47;;;;;;;32.17;17.85;;;;;;;15.05;68.76;100257.81;5022183;27;97460;-67
2024/03/04 00:52:15;;;;;;;34.38;20.40;;;;;;;14.92;69.48;100264.81;5026290;27;98865;-66
2024/03/04 00:54:41;;;;;;;35.42;20.48;;;;;;;14.93;69.30;100263.03;5022000;27;98886;-67
2024/03/04 00:57:08;;;;;;;38.58;19.90;;;;;;;15.09;69.09;100269.13;5029193;27;97126;-67
2024/03/04 00:59:34;;;;;;;41.13;20.88;;;;;;;15.27;68.52;100273.31;5027208;27;96762;-67
2024/03/04 01:02:01;;;;;;;41.65;21.10;;;;;;;15.17;68.76;100277.47;5025278;27;99865;-67
2024/03/04 01:04:27;;;;;;;37.13;20.73;;;;;;;14.93;69.26;100278.97;5024197;27;99229;-66
2024/03/04 01:06:56;;;;;;;36.75;20.70;;;;;;;14.84;69.81;100282.19;5025696;27;96877;-66
2024/03/04 01:09:22;;;;;;;36.53;20.63;;;;;;;15.20;68.80;100274.63;5024812;27;96812;-65
2024/03/04 01:11:49;;;;;;;33.63;20.60;;;;;;;14.97;69.56;100280.50;5024000;27;98720;-65
2024/03/04 01:14:15;;;;;;;35.60;19.88;;;;;;;14.94;69.66;100273.59;5022619;27;99252;-65
2024/03/04 01:16:42;;;;;;;39.47;23.10;;;;;;;14.71;70.33;100279.41;5019225;27;96850;-65
2024/03/04 01:19:08;;;;;;;38.58;22.40;;;;;;;14.66;70.72;100278.84;5025189;27;97016;-65
2024/03/04 01:21:35;;;;;;;37.08;20.73;;;;;;;14.85;70.40;100278.59;5032408;27;99127;-66
2024/03/04 01:24:03;;;;;;;36.17;22.77;;;;;;;14.87;70.35;100274.91;5025220;27;97950;-64
2024/03/04 01:26:30;;;;;;;40.65;21.40;;;;;;;14.67;70.91;100273.44;5022488;27;96946;-65
2024/03/04 01:28:56;;;;;;;39.67;21.77;;;;;;;14.77;70.93;100277.25;5021275;27;97064;-69
2024/03/04 01:31:23;;;;;;;34.33;21.23;;;;;;;14.55;71.06;100274.16;5030421;27;99171;-69
2024/03/04 01:33:49;;;;;;;41.72;22.55;;;;;;;14.66;71.38;100281.50;5028279;27;98811;-68
2024/03/04 01:36:16;;;;;;;41.88;23.73;;;;;;;14.74;70.95;100276.59;5024910;27;97337;-68
2024/03/04 01:38:42;;;;;;;44.83;24.50;;;;;;;14.77;71.12;100281.69;5029987;27;97354;-69
2024/03/04 01:41:10;;;;;;;35.28;21.85;;;;;;;14.57;71.99;100280.22;5032712;27;102038;-69
2024/03/04 01:43:37;;;;;;;37.38;22.58;;;;;;;14.50;71.80;100283.38;5026833;27;97741;-67
2024/03/04 01:46:03;;;;;;;41.47;24.02;;;;;;;14.46;71.73;100272.03;5017316;27;97056;-67
2024/03/04 01:48:30;;;;;;;39.33;23.77;;;;;;;14.53;71.67;100280.50;5026211;27;97011;-67
2024/03/04 01:50:58;;;;;;;38.65;23.40;;;;;;;14.41;72.58;100290.06;5025614;27;99196;-66
2024/03/04 01:53:27;;;;;;;43.80;24.65;;;;;;;14.42;72.34;100285.63;5020214;27;98079;-67
2024/03/04 01:55:57;;;;;;;42.58;24.52;;;;;;;14.35;72.39;100290.41;5028118;27;96897;-66
2024/03/04 01:58:25;;;;;;;40.22;23.83;;;;;;;14.19;73.36;100292.22;5020051;27;97285;-66
2024/03/04 02:00:52;;;;;;;41.58;24.88;;;;;;;14.36;72.77;100300.09;5022220;27;99142;-66
2024/03/04 02:03:21;;;;;;;47.78;25.67;;;;;;;14.64;71.71;100292.22;5017507;27;99042;-66
2024/03/04 02:05:49;;;;;;;46.50;26.00;;;;;;;14.67;71.71;100284.06;5023801;27;97180;-67
2024/03/04 02:08:17;;;;;;;48.65;25.92;;;;;;;14.43;72.32;100290.00;5026929;27;97201;-68
2024/03/04 02:10:44;;;;;;;48.42;27.13;;;;;;;14.48;72.31;100294.09;5024591;27;99356;-67
2024/03/04 02:13:10;;;;;;;46.55;26.55;;;;;;;14.55;71.95;100292.78;5021646;27;100245;-67
2024/03/04 02:15:38;;;;;;;52.55;28.00;;;;;;;14.67;71.49;100288.53;5024725;27;97598;-67
2024/03/04 02:18:06;;;;;;;48.17;26.95;;;;;;;14.65;71.37;100299.25;5029118;27;97384;-67
2024/03/04 02:20:37;;;;;;;54.85;29.30;;;;;;;14.49;71.85;100290.47;5026236;27;98773;-65
2024/03/04 02:23:06;;;;;;;50.95;28.00;;;;;;;14.17;73.23;100302.09;5027783;27;98986;-65
2024/03/04 02:25:34;;;;;;;50.28;28.08;;;;;;;14.16;72.90;100300.38;5028323;27;96830;-65
2024/03/04 02:28:02;;;;;;;52.75;28.55;;;;;;;14.30;72.60;100300.44;5027785;27;96966;-65
2024/03/04 02:30:28;;;;;;;51.75;27.55;;;;;;;14.35;72.99;100307.19;5029324;27;101865;-65
2024/03/04 02:32:55;;;;;;;53.00;29.20;;;;;;;14.49;72.16;100311.75;5021221;27;103291;-65
2024/03/04 02:35:21;;;;;;;46.15;27.17;;;;;;;14.42;72.41;100313.06;5026670;27;96946;-66
2024/03/04 02:37:48;;;;;;;49.13;29.35;;;;;;;14.36;72.65;100316.91;5024725;27;97188;-65
2024/03/04 02:40:15;;;;;;;55.20;29.52;;;;;;;14.40;72.45;100319.38;5015794;27;100922;-66
2024/03/04 02:42:42;;;;;;;53.63;30.40;;;;;;;14.51;71.78;100317.81;5031961;27;98869;-65
2024/03/04 02:45:09;;;;;;;49.25;29.35;;;;;;;14.47;72.06;100326.94;5024228;27;97057;-66
2024/03/04 02:47:35;;;;;;;52.47;30.50;;;;;;;14.27;72.69;100324.53;5026596;27;98121;-65
2024/03/04 02:50:03;;;;;;;57.03;30.85;;;;;;;14.32;72.06;100325.13;5028067;27;99166;-65
2024/03/04 02:52:29;;;;;;;48.30;29.42;;;;;;;14.29;72.39;100330.63;5028489;27;98868;-72
2024/03/04 02:54:56;;;;;;;57.80;32.25;;;;;;;14.12;73.55;100342.19;5025473;27;98615;-74
2024/03/04 02:57:23;;;;;;;51.97;30.52;;;;;;;14.28;72.46;100337.72;5023485;27;97093;-74
2024/03/04 02:59:50;;;;;;;57.72;32.70;;;;;;;14.16;73.10;100340.22;5029819;27;99310;-74
2024/03/04 03:02:17;;;;;;;53.97;30.70;;;;;;;14.11;72.98;100337.81;5030284;27;99061;-74
2024/03/04 03:04:43;;;;;;;61.55;30.08;;;;;;;14.27;72.72;100346.66;5030997;27;96967;-74
2024/03/04 03:07:10;;;;;;;50.80;31.38;;;;;;;14.48;71.92;100347.25;5023201;27;97037;-74
2024/03/04 03:09:36;;;;;;;58.05;31.38;;;;;;;14.33;72.06;100350.75;5027505;27;98880;-74
2024/03/04 03:12:03;;;;;;;54.10;31.50;;;;;;;14.41;71.98;100348.56;5028405;27;99119;-74
2024/03/04 03:14:30;;;;;;;53.92;31.95;;;;;;;14.24;72.66;100360.09;5021117;27;99460;-74
2024/03/04 03:16:57;;;;;;;56.95;31.27;;;;;;;14.15;72.83;100354.47;5017122;27;99190;-75
2024/03/04 03:19:24;;;;;;;59.40;32.70;;;;;;;14.07;72.81;100362.00;5019607;27;99362;-75
2024/03/04 03:21:52;;;;;;;58.35;33.28;;;;;;;14.23;72.39;100354.88;5023381;27;98817;-76
2024/03/04 03:24:19;;;;;;;58.72;33.53;;;;;;;14.07;72.90;100356.69;5026379;27;96877;-75
2024/03/04 03:26:46;;;;;;;66.20;33.15;;;;;;;13.95;73.00;100360.88;5018209;27;97187;-74
2024/03/04 03:29:12;;;;;;;54.60;31.08;;;;;;;14.03;73.42;100360.47;5019301;27;98005;-76
2024/03/04 03:31:40;;;;;;;57.67;33.30;;;;;;;14.00;73.31;100360.63;5027033;27;99613;-75
2024/03/04 03:34:06;;;;;;;59.50;32.67;;;;;;;14.01;73.16;100367.66;5024979;27;97058;-75
2024/03/04 03:36:33;;;;;;;58.92;33.80;;;;;;;13.92;73.34;100369.88;5024734;27;97037;-75
2024/03/04 03:38:59;;;;;;;62.15;32.55;;;;;;;13.92;73.22;100374.31;5021769;27;99023;-75
2024/03/04 03:41:26;;;;;;;55.10;33.70;;;;;;;13.89;73.52;100375.34;5021378;27;98764;-75
2024/03/04 03:43:53;;;;;;;64.68;34.75;;;;;;;13.88;73.64;100380.75;5027930;27;97261;-76
2024/03/04 03:46:19;;;;;;;64.88;34.42;;;;;;;13.82;73.81;100373.13;5027703;27;97043;-75
2024/03/04 03:48:47;;;;;;;57.05;32.90;;;;;;;14.03;73.03;100379.06;5022020;27;99030;-75
2024/03/04 03:51:13;;;;;;;57.75;33.67;;;;;;;13.89;73.37;100380.69;5027617;27;98060;-75
2024/03/04 03:53:40;;;;;;;61.90;34.03;;;;;;;13.93;73.12;100379.56;5018901;27;96899;-75
2024/03/04 03:56:06;;;;;;;58.20;33.90;;;;;;;13.96;73.09;100378.53;5022511;27;97407;-75
2024/03/04 03:58:32;;;;;;;57.20;33.20;;;;;;;13.76;73.65;100382.28;5026006;27;99152;-74
2024/03/04 04:00:58;;;;;;;;;;;;;;;13.95;73.24;100387.44;5025212;27;98738;-75
2024/03/04 04:03:25;;;;;;;59.28;33.40;;;;;;;13.96;72.86;100381.19;5027732;27;96841;-75
2024/03/04 04:05:53;;;;;;;60.25;34.33;;;;;;;13.81;73.24;100387.34;5024322;27;97504;-75
2024/03/04 04:08:19;;;;;;;56.80;33.40;;;;;;;13.89;73.21;100393.09;5022269;27;98909;-74
2024/03/04 04:10:46;;;;;;;61.40;34.78;;;;;;;13.75;73.32;100398.28;5030246;27;99162;-72
2024/03/04 04:13:12;;;;;;;57.67;35.13;;;;;;;13.55;74.15;100396.69;5016566;27;97269;-74
2024/03/04 04:15:38;;;;;;;59.85;33.35;;;;;;;13.85;73.20;100397.69;5025089;27;98048;-74
2024/03/04 04:18:05;;;;;;;61.20;34.63;;;;;;;13.65;73.58;100405.91;5018789;27;99224;-75
2024/03/04 04:20:31;;;;;;;64.43;33.97;;;;;;;13.58;73.91;100401.88;5024963;27;98778;-74
2024/03/04 04:22:59;;;;;;;57.63;34.17;;;;;;;13.45;74.59;100403.44;5022518;27;98052;-74
2024/03/04 04:25:25;;;;;;;64.15;36.22;;;;;;;13.47;74.33;100404.22;5026320;27;97205;-74
2024/03/04 04:27:52;;;;;;;60.97;34.50;;;;;;;13.40;74.80;100406.31;5030164;27;97794;-74
2024/03/04 04:30:18;;;;;;;63.90;35.40;;;;;;;13.73;73.44;100414.28;5021891;27;98752;-73
2024/03/04 04:32:45;;;;;;;61.22;35.38;;;;;;;13.59;73.75;100411.50;5017489;27;97910;-73
2024/03/04 04:35:11;;;;;;;64.85;36.17;;;;;;;13.73;73.42;100409.00;5025343;27;97398;-73
2024/03/04 04:37:38;;;;;;;65.95;36.33;;;;;;;13.81;73.16;100414.75;5025529;27;98925;-73
2024/03/04 04:40:08;;;;;;;64.63;35.58;;;;;;;13.70;73.15;100417.13;5025910;27;101851;-73
2024/03/04 04:42:34;;;;;;;61.60;35.40;;;;;;;13.77;73.15;100415.00;5028180;27;96812;-72
2024/03/04 04:45:01;;;;;;;59.95;35.00;;;;;;;13.67;73.12;100411.97;5019135;27;97342;-73
2024/03/04 04:47:29;;;;;;;62.38;35.60;;;;;;;13.65;73.14;100413.00;5027700;27;98967;-75
2024/03/04 04:49:56;;;;;;;63.95;34.85;;;;;;;13.69;73.15;100419.88;5022903;27;97516;-76
2024/03/04 04:52:22;;;;;;;66.65;36.63;;;;;;;13.68;72.93;100423.44;5030931;27;97068;-75
2024/03/04 04:54:48;;;;;;;64.68;35.17;;;;;;;13.48;73.37;100424.50;5020911;27;96740;-75
2024/03/04 04:57:18;;;;;;;66.43;36.63;;;;;;;13.59;73.40;100423.97;5016595;27;99179;-75
2024/03/04 04:59:44;;;;;;;65.78;36.65;;;;;;;13.50;73.23;100425.28;5021782;28;98787;-76
2024/03/04 05:02:11;;;;;;;63.63;37.28;;;;;;;13.48;73.19;100425.38;5026443;27;97264;-75
2024/03/04 05:04:37;;;;;;;71.88;38.70;;;;;;;13.58;73.03;100431.06;5022596;27;97811;-75
2024/03/04 05:07:04;;;;;;;69.15;38.28;;;;;;;13.67;72.54;100424.38;5020266;27;98172;-74
2024/03/04 05:09:30;;;;;;;66.85;37.42;;;;;;;13.52;72.96;100429.56;5018867;27;101423;-75
2024/03/04 05:11:57;;;;;;;70.15;38.08;;;;;;;13.33;73.58;100434.13;5019611;27;97500;-75
2024/03/04 05:14:24;;;;;;;70.75;37.92;;;;;;;13.46;73.43;100426.38;5022027;27;98157;-74
2024/03/04 05:16:51;;;;;;;66.65;38.50;;;;;;;13.34;73.26;100427.88;5027133;27;98692;-75
2024/03/04 05:19:17;;;;;;;66.57;39.40;;;;;;;13.27;73.87;100430.91;5025288;27;98763;-75
2024/03/04 05:21:44;;;;;;;67.20;37.90;;;;;;;13.25;73.89;100427.50;5028404;27;99808;-74
2024/03/04 05:24:10;;;;;;;66.90;38.60;;;;;;;13.23;73.61;100434.69;5024522;27;98737;-73
2024/03/04 05:26:37;;;;;;;72.88;39.95;;;;;;;13.20;74.03;100437.47;5027168;27;101268;-74
2024/03/04 05:29:04;;;;;;;71.00;39.63;;;;;;;13.29;73.78;100427.25;5029294;27;98830;-73
2024/03/04 05:31:32;;;;;;;64.60;39.42;;;;;;;12.89;74.77;100443.44;5016636;27;97680;-73
2024/03/04 05:33:59;;;;;;;68.25;37.83;;;;;;;13.06;74.56;100439.00;5026709;27;98302;-75
2024/03/04 05:36:25;;;;;;;72.53;39.72;;;;;;;13.13;74.05;100442.22;5024846;27;98938;-76
2024/03/04 05:38:53;;;;;;;73.20;39.67;;;;;;;13.12;73.91;100441.41;5026631;27;97559;-74
2024/03/04 05:41:19;;;;;;;67.65;37.38;;;;;;;13.22;73.93;100451.53;5020346;27;97710;-74
2024/03/04 05:43:46;;;;;;;71.15;39.42;;;;;;;13.26;73.40;100453.13;5019605;27;97131;-75
2024/03/04 05:46:12;;;;;;;76.60;39.05;;;;;;;13.10;73.97;100450.34;5036510;27;99392;-74
2024/03/04 05:48:40;;;;;;;70.50;39.35;;;;;;;13.14;73.39;100455.44;5028409;27;100866;-75
2024/03/04 05:51:06;;;;;;;70.55;38.70;;;;;;;13.37;72.63;100450.75;5028426;27;96804;-74
2024/03/04 05:53:33;;;;;;;73.70;38.95;;;;;;;13.36;73.01;100454.34;5026061;27;97290;-74
2024/03/04 05:55:59;;;;;;;76.13;39.65;;;;;;;13.55;71.96;100458.63;5030595;27;98134;-74
2024/03/04 05:58:26;;;;;;;72.05;38.63;;;;;;;13.35;72.21;100463.22;5027717;27;97662;-74
2024/03/04 06:00:52;;;;;;;72.10;38.22;;;;;;;13.40;72.17;100471.81;5027771;27;98624;-76
2024/03/04 06:03:19;;;;;;;75.15;38.13;;;;;;;13.41;72.07;100466.44;5026483;27;96997;-75
2024/03/04 06:05:46;;;;;;;69.82;41.63;;;;;;;13.24;72.52;100458.50;5029066;27;98933;-75
2024/03/04 06:08:14;;;;;;;79.05;39.85;;;;;;;13.24;72.26;100469.09;5024798;27;99426;-75
2024/03/04 06:10:42;;;;;;;72.68;39.38;;;;;;;13.13;72.82;100464.31;5023714;27;97631;-75
2024/03/04 06:13:09;;;;;;;70.28;39.10;;;;;;;13.21;72.93;100466.59;5032039;27;97696;-75
2024/03/04 06:15:35;;;;;;;70.97;38.67;;;;;;;13.24;72.83;100471.75;5028827;27;98956;-76
2024/03/04 06:18:02;;;;;;;80.78;41.17;;;;;;;13.38;72.21;100471.91;5016205;27;97610;-73
2024/03/04 06:20:28;;;;;;;73.15;40.65;;;;;;;13.29;72.01;100479.47;5021436;27;98106;-75
2024/03/04 06:22:56;;;;;;;65.63;38.63;;;;;;;13.25;72.36;100488.53;5025991;27;96829;-75
2024/03/04 06:25:23;;;;;;;76.63;40.17;;;;;;;13.20;72.60;100486.09;5035249;27;99215;-75
2024/03/04 06:27:50;;;;;;;70.70;40.90;;;;;;;13.39;71.89;100484.22;5030536;27;98879;-74
2024/03/04 06:30:16;;;;;;;68.45;39.00;;;;;;;13.20;72.48;100482.56;5024081;27;97248;-75
2024/03/04 06:32:44;;;;;;;67.95;39.97;;;;;;;13.11;72.72;100482.09;5026651;27;98632;-75
2024/03/04 06:35:11;;;;;;;67.63;38.90;;;;;;;13.21;72.48;100485.16;5027723;27;101326;-76
2024/03/04 06:37:38;;;;;;;70.43;39.67;;;;;;;13.27;72.18;100491.94;5025130;27;97964;-76
2024/03/04 06:40:08;;;;;;;67.90;39.55;;;;;;;13.33;71.61;100488.97;5020950;27;97125;-75
2024/03/04 06:42:34;;;;;;;68.82;38.97;;;;;;;13.29;71.85;100500.69;5027220;27;97429;-76
2024/03/04 06:45:01;;;;;;;72.32;39.08;;;;;;;13.35;71.69;100497.72;5029329;27;99036;-76
2024/03/04 06:47:27;;;;;;;73.00;38.03;;;;;;;13.56;70.94;100496.66;5023711;27;98104;-75
2024/03/04 06:49:54;;;;;;;72.95;39.97;;;;;;;13.73;70.75;100504.56;5022552;27;97615;-75
2024/03/04 06:52:20;;;;;;;66.68;37.10;;;;;;;13.56;70.30;100504.59;5026039;27;97075;-74
2024/03/04 06:54:48;;;;;;;67.25;38.88;;;;;;;13.58;70.85;100508.06;5022623;27;98183;-74
2024/03/04 06:57:17;;;;;;;68.63;38.60;;;;;;;13.92;69.72;100507.97;5020803;27;99106;-74
2024/03/04 06:59:43;;;;;;;71.88;38.30;;;;;;;13.67;69.98;100504.03;5022336;27;98090;-74
2024/03/04 07:02:10;;;;;;;66.30;37.15;;;;;;;13.98;69.40;100500.66;5027078;27;97762;-75
2024/03/04 07:04:36;;;;;;;68.85;37.00;;;;;;;13.98;68.92;100506.78;5017213;27;99270;-76
2024/03/04 07:07:02;;;;;;;69.93;36.55;;;;;;;14.07;68.57;100508.13;5016646;27;98775;-75
2024/03/04 07:09:29;;;;;;;74.05;38.75;;;;;;;13.95;68.79;100507.84;5025149;27;96889;-74
2024/03/04 07:11:55;;;;;;;68.28;36.55;;;;;;;14.08;69.12;100509.84;5023706;27;97133;-75
2024/03/04 07:14:23;;;;;;;73.00;36.40;;;;;;;14.12;68.17;100519.34;5025546;27;99298;-75
2024/03/04 07:16:49;;;;;;;67.93;38.60;;;;;;;14.14;68.07;100523.66;5026110;27;98809;-74
2024/03/04 07:19:16;;;;;;;67.50;38.00;;;;;;;14.42;67.25;100532.81;5020485;27;97214;-75
2024/03/04 07:21:42;;;;;;;69.05;38.15;;;;;;;14.41;67.82;100526.66;5020841;27;97973;-74
2024/03/04 07:24:08;;;;;;;68.45;34.75;;;;;;;14.41;67.98;100529.31;5018880;27;98991;-76
2024/03/04 07:26:35;;;;;;;64.70;36.58;;;;;;;14.13;67.06;100518.41;5026117;27;97620;-74
2024/03/04 07:29:02;;;;;;;68.72;37.20;;;;;;;14.54;66.79;100529.50;5022908;27;97030;-74
2024/03/04 07:31:30;;;;;;;65.10;36.88;;;;;;;14.62;66.38;100524.63;5028229;27;100824;-75
2024/03/04 07:33:56;;;;;;;74.80;38.38;;;;;;;14.53;65.79;100536.59;5023364;27;99519;-75
2024/03/04 07:36:24;;;;;;;73.05;37.40;;;;;;;14.63;65.68;100532.50;5025753;27;98777;-74
2024/03/04 07:38:49;;;;;;;61.75;37.20;;;;;;;14.53;66.01;100536.59;5018542;27;98582;-74
2024/03/04 07:41:16;;;;;;;;;;;;;;;14.51;65.91;100534.97;5024737;27;97278;-74
2024/03/04 07:43:43;;;;;;;63.73;35.77;;;;;;;14.57;65.83;100538.13;5023420;27;99341;-74
2024/03/04 07:46:09;;;;;;;64.53;35.50;;;;;;;14.70;65.71;100533.84;5021514;27;99285;-75
2024/03/04 07:48:37;;;;;;;67.55;36.05;;;;;;;14.98;64.86;100543.81;5025907;27;97835;-75
2024/03/04 07:51:05;;;;;;;65.78;36.20;;;;;;;14.81;64.57;100546.56;5019084;27;96841;-75
2024/03/04 07:53:31;;;;;;;70.22;36.67;;;;;;;14.81;64.70;100549.25;5022223;27;98921;-75
2024/03/04 07:55:58;;;;;;;66.82;36.90;;;;;;;14.86;64.88;100548.97;5024535;27;99043;-75
2024/03/04 07:58:24;;;;;;;63.50;35.78;;;;;;;14.90;64.55;100551.38;5007337;27;98179;-75
2024/03/04 08:00:51;;;;;;;71.68;35.97;;;;;;;15.20;63.61;100547.91;5011471;27;100488;-75
2024/03/04 08:03:23;;;;;;;61.85;35.13;;;;;;;15.19;63.73;100557.69;5008774;27;98208;-75
2024/03/04 08:05:51;;;;;;;64.13;36.15;;;;;;;15.13;63.65;100550.06;5019068;27;102726;-74
2024/03/04 08:08:18;;;;;;;60.30;35.10;;;;;;;15.62;62.36;100555.25;5021681;27;97331;-74
2024/03/04 08:10:44;;;;;;;57.22;33.92;;;;;;;15.77;61.61;100557.84;5019611;27;101281;-74
2024/03/04 08:13:11;;;;;;;66.32;35.60;;;;;;;15.69;61.54;100552.09;5016201;27;99041;-74
2024/03/04 08:15:37;;;;;;;61.88;34.47;;;;;;;15.54;61.67;100558.34;5023687;27;98794;-74
2024/03/04 08:18:04;;;;;;;66.22;35.28;;;;;;;16.03;60.86;100558.06;5019311;27;96792;-74
2024/03/04 08:20:31;;;;;;;65.93;35.15;;;;;;;16.05;60.23;100567.69;5006578;27;99952;-74
2024/03/04 08:22:59;;;;;;;54.90;34.10;;;;;;;16.00;60.37;100568.94;5007866;27;99550;-75
2024/03/04 08:25:25;;;;;;;55.03;34.65;;;;;;;15.74;60.36;100570.50;5007553;27;100737;-74
2024/03/04 08:27:52;;;;;;;58.95;35.05;;;;;;;15.90;60.53;100574.81;5003091;27;98426;-74
2024/03/04 08:30:18;;;;;;;70.85;35.42;;;;;;;16.05;60.15;100574.84;5008543;27;97896;-74
2024/03/04 08:32:45;;;;;;;57.08;34.67;;;;;;;16.27;60.08;100577.91;5012284;27;98685;-74
2024/03/04 08:35:12;;;;;;;62.05;35.58;;;;;;;16.30;59.27;100583.03;5008071;27;99620;-74
2024/03/04 08:37:38;;;;;;;58.35;33.42;;;;;;;16.22;59.06;100591.50;5006946;27;99960;-74
2024/03/04 08:40:08;;;;;;;57.97;34.15;;;;;;;16.20;59.01;100600.56;5012492;27;98351;-76
2024/03/04 08:42:38;;;;;;;60.47;34.10;;;;;;;16.44;58.60;100595.53;5025741;27;99225;-76
2024/03/04 08:45:06;;;;;;;64.53;36.25;;;;;;;16.29;59.19;100607.97;5017363;27;97749;-74
2024/03/04 08:47:32;;;;;;;57.50;34.38;;;;;;;16.21;59.12;100608.44;5015924;27;97430;-73
2024/03/04 08:50:00;;;;;;;55.28;33.65;;;;;;;16.14;59.91;100601.81;5025158;27;98424;-73
2024/03/04 08:52:27;;;;;;;58.95;34.08;;;;;;;16.50;58.76;100606.66;5022785;27;98069;-74
2024/03/04 08:54:54;;;;;;;56.65;33.55;;;;;;;16.95;57.83;100610.09;5024249;27;99080;-74
2024/03/04 08:57:25;;;;;;;60.97;34.00;;;;;;;16.86;57.61;100608.03;5023281;27;97239;-75
2024/03/04 08:59:51;;;;;;;60.28;35.08;;;;;;;17.28;56.40;100610.56;5018165;27;97920;-75
2024/03/04 09:02:18;;;;;;;56.85;33.97;;;;;;;17.55;55.06;100615.91;5020765;27;99158;-74
2024/03/04 09:04:47;;;;;;;66.03;33.78;;;;;;;17.61;54.65;100610.19;5021226;27;99123;-74
2024/03/04 09:07:14;;;;;;;65.80;34.05;;;;;;;17.32;55.84;100614.78;5019562;27;97329;-75
2024/03/04 09:09:41;;;;;;;62.20;33.05;;;;;;;17.66;55.06;100618.75;5022165;27;96807;-74
2024/03/04 09:12:17;;;;;;;61.45;34.25;;;;;;;17.46;55.31;100613.84;5022885;27;98966;-76
2024/03/04 09:14:45;;;;;;;56.70;33.65;;;;;;;18.07;53.17;100617.78;5019089;27;98730;-75
2024/03/04 09:17:11;;;;;;;59.17;34.47;;;;;;;17.78;54.10;100622.44;5026573;27;97226;-74
2024/03/04 09:19:39;;;;;;;58.22;32.15;;;;;;;17.68;54.03;100614.19;5017260;27;99780;-73
2024/03/04 09:22:05;;;;;;;59.83;33.15;;;;;;;17.77;53.82;100616.25;5022665;27;97847;-74
2024/03/04 09:24:32;;;;;;;83.15;35.00;;;;;;;17.79;54.03;100602.75;5018517;27;100036;-74
2024/03/04 09:26:58;;;;;;;60.40;34.63;;;;;;;17.80;53.75;100617.84;5026822;27;96895;-74
2024/03/04 09:29:24;;;;;;;55.55;33.80;;;;;;;17.52;53.83;100616.13;5025718;27;97338;-74
2024/03/04 09:31:52;;;;;;;57.60;32.90;;;;;;;17.62;54.13;100619.06;5025735;27;99913;-73
2024/03/04 09:34:19;;;;;;;58.53;32.67;;;;;;;17.24;55.40;100621.56;5028270;27;98922;-73
2024/03/04 09:36:45;;;;;;;65.30;34.67;;;;;;;17.45;54.71;100625.50;5026475;27;97262;-74
2024/03/04 09:39:12;;;;;;;53.22;33.08;;;;;;;17.47;54.51;100619.09;5027317;27;97183;-74
2024/03/04 09:41:39;;;;;;;61.03;35.25;;;;;;;17.16;55.37;100622.06;5032822;27;98755;-74
2024/03/04 09:44:05;;;;;;;58.28;33.75;;;;;;;17.28;55.26;100628.41;5023751;27;98930;-74
2024/03/04 09:46:32;;;;;;;59.65;35.17;;;;;;;17.31;55.16;100630.91;5027942;27;97120;-75
2024/03/04 09:49:01;;;;;;;58.55;33.15;;;;;;;17.49;54.99;100637.69;5028112;27;98722;-74
2024/03/04 09:51:30;;;;;;;58.53;34.78;;;;;;;17.75;54.49;100639.53;5030308;27;99049;-75
2024/03/04 09:53:58;;;;;;;56.38;35.22;;;;;;;17.43;55.07;100652.31;5022964;27;97549;-76
2024/03/04 09:56:26;;;;;;;61.08;35.03;;;;;;;17.47;54.16;100644.94;5025469;27;98661;-74
2024/03/04 09:58:54;;;;;;;56.63;34.47;;;;;;;17.63;54.44;100643.03;5025445;27;96854;-75
2024/03/04 10:01:21;;;;;;;64.53;36.85;;;;;;;17.74;53.72;100645.84;5018963;27;99083;-77
2024/03/04 10:03:48;;;;;;;60.15;35.00;;;;;;;17.64;54.24;100651.91;5028443;27;97594;-69
2024/03/04 10:06:16;;;;;;;57.10;35.58;;;;;;;17.54;54.29;100649.78;5023062;27;98664;-68
2024/03/04 10:08:43;;;;;;;56.97;35.72;;;;;;;17.46;54.61;100652.09;5022213;27;98211;-67
2024/03/04 10:11:10;;;;;;;60.55;36.13;;;;;;;17.60;54.18;100650.34;5019950;27;100218;-68
2024/03/04 10:13:37;;;;;;;58.05;35.47;;;;;;;17.65;54.31;100649.13;5021150;27;99460;-67
2024/03/04 10:16:06;;;;;;;59.78;35.63;;;;;;;17.77;53.74;100653.66;5022104;27;96795;-68
2024/03/04 10:18:32;;;;;;;56.50;35.20;;;;;;;17.66;54.01;100648.16;5025251;27;96979;-68
2024/03/04 10:20:59;;;;;;;57.92;35.03;;;;;;;17.70;53.91;100657.69;5027786;27;99332;-68
2024/03/04 10:23:26;;;;;;;52.28;33.70;;;;;;;18.07;53.17;100652.53;5024223;27;100669;-69
2024/03/04 10:26:09;;;;;;;63.75;36.30;;;;;;;17.96;53.18;100655.09;5017698;27;98351;-68
2024/03/04 10:28:38;;;;;;;61.15;34.00;;;;;;;17.96;53.37;100653.28;5025092;27;97264;-69
2024/03/04 10:31:09;;;;;;;58.20;35.22;;;;;;;18.34;52.33;100658.69;5025532;27;99619;-68
2024/03/04 10:33:35;;;;;;;57.22;33.60;;;;;;;18.18;52.51;100650.00;5032790;27;98720;-67
2024/03/04 10:36:13;;;;;;;61.22;36.00;;;;;;;17.99;53.07;100660.22;5021341;27;97777;-68
2024/03/04 10:38:41;;;;;;;57.85;35.33;;;;;;;17.98;53.02;100650.50;5029506;27;97706;-68
2024/03/04 10:41:14;;;;;;;58.42;36.03;;;;;;;18.13;52.57;100657.47;5025831;27;98980;-69
2024/03/04 10:43:41;;;;;;;64.85;37.38;;;;;;;17.91;53.87;100660.75;5031210;27;99012;-68
2024/03/04 10:46:08;;;;;;;59.95;37.50;;;;;;;18.35;52.46;100660.41;5025174;27;96906;-68
2024/03/04 10:48:36;;;;;;;58.72;35.30;;;;;;;17.89;53.56;100662.66;5029085;27;97012;-68
2024/03/04 10:51:03;;;;;;;59.38;36.03;;;;;;;18.01;53.31;100656.50;5025229;27;98969;-68
2024/03/04 10:53:30;;;;;;;59.90;37.08;;;;;;;18.45;51.91;100666.81;5030912;27;99201;-67
2024/03/04 10:56:04;;;;;;;59.85;37.38;;;;;;;18.45;51.43;100669.47;5021277;27;97819;-68
2024/03/04 10:58:32;;;;;;;57.40;35.63;;;;;;;18.19;52.28;100665.06;5028669;27;97681;-67
2024/03/04 11:01:01;;;;;;;61.05;35.42;;;;;;;18.23;52.28;100672.81;5030380;27;99223;-68
2024/03/04 11:03:30;;;;;;;61.03;35.65;;;;;;;18.20;51.93;100673.00;5031574;27;99141;-68
2024/03/04 11:06:00;;;;;;;58.92;35.20;;;;;;;18.03;52.41;100669.75;5021489;27;96882;-68
2024/03/04 11:08:31;;;;;;;59.55;34.58;;;;;;;18.01;52.46;100666.31;5032516;27;98314;-68